Gladstone, Virginia
Current Conditions -  °F | °C
As of 12:54 AM on Sunday 26 Oct 2014 (Local Time) from KLYH Reporting Station
Clear Clear  
Wind Chill: 15°   Ceiling: Unl
Heat Index: 15°   Visibility: 10mi
Dew Point:   Wind: 6mph
Humidity: 69%   Direction: 250°WSW
Pressure: 29.83"   Gusts: NA
Location:  37.55°N, 78.85°W
Report Text: KLYH 260454Z AUTO 25005KT 10SM CLR 15/09 A2983 RMK AO2 SLP095 T01500094 402110006
Loading
Personal Weather Stations






























Interactive Weather Map
Tropical Storm Tracking
New forecast layout! Learn more

10-Day Weather Forecast

Advertisements
Track Severe Weather on mobile